Terminal Aerodrome Forecast
Issued by NWS

Current Version | Previous Version | Text Only | Print | Product List | Glossary On
Versions: 1 2 3 4 5 6 7 8 9 10 11 12 13 14 15 16 17 18 19 20 21 22 23 24 25 26 27 28 29 30 31
000
FTUS44 KHGX 261720
TAFUTS
TAF
KUTS 261720Z 2618/2718 21008KT P6SM FEW030 SCT050
     FM270000 18007KT P6SM FEW070
     FM270300 20004KT P6SM SKC
     FM270900 VRB04KT P6SM SCT008
     FM271500 20007KT P6SM FEW025=

USA.gov is the U.S. government's official web portal to all federal, state and local government web resources and services.